createdAt,value
2019-04-10T00:01:19.445Z,4.98
2019-04-10T00:03:50.549Z,5.23
2019-04-10T00:06:21.721Z,4.98
2019-04-10T00:08:52.876Z,5.05
2019-04-10T00:11:24.830Z,5.09
2019-04-10T00:13:55.782Z,4.81
2019-04-10T00:16:27.822Z,5.02
2019-04-10T00:18:59.191Z,4.69
2019-04-10T00:21:31.334Z,4.98
2019-04-10T00:24:02.457Z,4.87
2019-04-10T00:26:34.060Z,4.57
2019-04-10T00:29:05.737Z,4.70
2019-04-10T00:31:36.649Z,4.80
2019-04-10T00:34:07.561Z,4.86
2019-04-10T00:36:39.414Z,4.74
2019-04-10T00:39:10.564Z,4.80
2019-04-10T00:41:41.559Z,4.72
2019-04-10T00:44:13.502Z,4.36
2019-04-10T00:46:44.455Z,5.05
2019-04-10T00:49:15.566Z,4.76
2019-04-10T00:51:47.781Z,4.67
2019-04-10T00:54:22.053Z,4.65
2019-04-10T00:56:53.374Z,4.58
2019-04-10T00:59:24.277Z,4.34
2019-04-10T01:01:56.210Z,4.62
2019-04-10T01:04:27.330Z,4.35
2019-04-10T01:06:58.229Z,4.33
2019-04-10T01:09:29.497Z,4.34
2019-04-10T01:12:01.808Z,4.18
2019-04-10T01:14:34.260Z,4.03
2019-04-10T01:17:06.224Z,3.92
2019-04-10T01:19:37.745Z,3.77
2019-04-10T01:22:09.026Z,4.05
2019-04-10T01:24:39.901Z,3.86
2019-04-10T01:27:11.780Z,4.12
2019-04-10T01:29:43.951Z,4.11
2019-04-10T01:32:15.424Z,4.13
2019-04-10T01:34:46.544Z,3.98
2019-04-10T01:37:18.758Z,4.01
2019-04-10T01:39:50.648Z,3.86
2019-04-10T01:42:22.792Z,3.85
2019-04-10T01:44:55.221Z,3.76
2019-04-10T01:47:26.911Z,3.77
2019-04-10T01:49:58.103Z,3.91
2019-04-10T01:52:31.197Z,3.86
2019-04-10T01:55:16.014Z,3.94
2019-04-10T01:57:35.323Z,3.56
2019-04-10T02:00:06.818Z,3.49
2019-04-10T02:02:45.451Z,3.41
2019-04-10T02:05:16.694Z,3.55
2019-04-10T02:07:59.334Z,3.32
2019-04-10T02:10:20.800Z,3.45
2019-04-10T02:12:52.636Z,3.50
2019-04-10T02:15:23.617Z,3.48
2019-04-10T02:17:55.101Z,3.39
2019-04-10T02:20:27.077Z,3.53
2019-04-10T02:22:58.465Z,3.51
2019-04-10T02:25:30.607Z,3.38
2019-04-10T02:28:02.701Z,3.07
2019-04-10T02:30:34.741Z,3.49
2019-04-10T02:33:08.407Z,3.40
2019-04-10T02:35:40.033Z,3.61
2019-04-10T02:38:34.157Z,3.18
2019-04-10T02:40:45.568Z,3.62
2019-04-10T02:43:16.775Z,3.46
2019-04-10T02:45:49.390Z,3.18
2019-04-10T02:48:20.300Z,3.28
2019-04-10T02:50:51.543Z,3.23
2019-04-10T02:53:23.317Z,2.97
2019-04-10T02:55:55.777Z,2.87
2019-04-10T02:58:26.761Z,3.38
2019-04-10T03:00:59.060Z,2.97
2019-04-10T03:03:30.765Z,2.97
2019-04-10T03:06:02.603Z,2.90
2019-04-10T03:08:44.547Z,2.50
2019-04-10T03:11:10.951Z,2.79
2019-04-10T03:13:39.621Z,2.59
2019-04-10T03:16:11.762Z,2.73
2019-04-10T03:18:43.194Z,2.76
2019-04-10T03:21:15.367Z,2.72
2019-04-10T03:23:46.145Z,2.72
2019-04-10T03:26:17.368Z,3.11
2019-04-10T03:28:49.305Z,3.32
2019-04-10T03:31:23.022Z,2.94
2019-04-10T03:34:16.924Z,2.89
2019-04-10T03:36:49.045Z,2.91
2019-04-10T03:39:21.619Z,2.62
2019-04-10T03:41:52.743Z,2.70
2019-04-10T03:44:24.911Z,2.91
2019-04-10T03:46:56.137Z,2.69
2019-04-10T03:49:27.639Z,2.12
2019-04-10T03:51:58.533Z,2.45
2019-04-10T03:54:30.221Z,2.67
2019-04-10T03:57:01.022Z,2.43
2019-04-10T03:59:32.670Z,2.41
2019-04-10T04:02:03.622Z,2.47
2019-04-10T04:04:34.553Z,2.66
2019-04-10T04:07:05.437Z,2.66
2019-04-10T04:09:37.733Z,2.55
2019-04-10T04:12:09.221Z,2.55
2019-04-10T04:14:40.840Z,2.40
2019-04-10T04:17:12.023Z,2.39
2019-04-10T04:19:43.160Z,2.55
2019-04-10T04:22:14.624Z,2.76
2019-04-10T04:24:46.174Z,2.47
2019-04-10T04:27:17.552Z,2.44
2019-04-10T04:29:49.890Z,2.56
2019-04-10T04:32:21.762Z,2.33
2019-04-10T04:34:52.868Z,2.39
2019-04-10T04:37:24.014Z,2.46
2019-04-10T04:39:56.295Z,4.44
2019-04-10T04:42:28.756Z,9.93
2019-04-10T04:45:00.775Z,9.93
2019-04-10T04:47:36.451Z,10.94
2019-04-10T04:50:07.756Z,10.79
2019-04-10T04:52:41.114Z,11.71
2019-04-10T04:55:12.326Z,9.20
2019-04-10T04:57:43.028Z,9.86
2019-04-10T05:00:15.167Z,5.41
2019-04-10T05:02:47.068Z,6.55
2019-04-10T05:05:19.850Z,5.50
2019-04-10T05:07:59.330Z,7.74
2019-04-10T05:10:25.132Z,7.42
2019-04-10T05:15:37.305Z,9.79
2019-04-10T05:18:08.215Z,7.48
2019-04-10T05:20:45.158Z,8.39
2019-04-10T05:23:12.425Z,6.56
2019-04-10T05:25:43.476Z,6.56
2019-04-10T05:28:15.219Z,9.69
2019-04-10T05:30:47.468Z,6.43
2019-04-10T05:33:18.954Z,7.75
2019-04-10T05:35:50.769Z,7.30
2019-04-10T05:38:22.590Z,6.40
2019-04-10T05:40:55.184Z,9.42
2019-04-10T05:43:28.167Z,8.32
2019-04-10T05:45:59.402Z,8.24
2019-04-10T05:48:31.531Z,8.38
2019-04-10T05:51:05.630Z,7.39
2019-04-10T05:53:35.083Z,8.02
2019-04-10T05:56:06.074Z,7.30
2019-04-10T05:58:37.199Z,11.38
2019-04-10T06:01:09.493Z,10.44
2019-04-10T06:03:40.823Z,9.04
2019-04-10T06:06:12.522Z,9.57
2019-04-10T06:08:44.701Z,10.36
2019-04-10T06:11:15.527Z,9.72
2019-04-10T06:13:46.665Z,8.30
2019-04-10T06:16:18.034Z,9.53
2019-04-10T06:18:48.948Z,8.33
2019-04-10T06:21:21.067Z,10.15
2019-04-10T06:23:52.213Z,10.83
2019-04-10T06:26:23.693Z,9.76
2019-04-10T06:28:55.271Z,9.04
2019-04-10T06:31:26.164Z,8.22
2019-04-10T06:33:58.310Z,8.24
2019-04-10T06:36:29.721Z,7.67
2019-04-10T06:39:00.582Z,8.68
2019-04-10T06:41:33.003Z,8.58
2019-04-10T06:44:03.838Z,6.96
2019-04-10T06:46:37.546Z,5.79
2019-04-10T06:49:09.157Z,6.51
2019-04-10T06:51:41.051Z,6.62
2019-04-10T06:54:12.927Z,5.79
2019-04-10T06:56:45.072Z,6.34
2019-04-10T06:59:16.638Z,7.01
2019-04-10T07:01:52.604Z,6.69
2019-04-10T07:04:24.046Z,8.21
2019-04-10T07:07:00.108Z,8.77
2019-04-10T07:09:27.052Z,9.13
2019-04-10T07:12:01.488Z,8.76
2019-04-10T07:14:35.475Z,8.99
2019-04-10T07:17:07.073Z,9.26
2019-04-10T07:19:37.765Z,9.71
2019-04-10T07:22:12.426Z,10.40
2019-04-10T07:24:42.628Z,10.20
2019-04-10T07:27:14.037Z,9.64
2019-04-10T07:29:45.176Z,10.64
2019-04-10T07:32:16.881Z,10.50
2019-04-10T07:34:48.738Z,9.86
2019-04-10T07:37:22.490Z,10.32
2019-04-10T07:39:52.999Z,9.86
2019-04-10T07:42:29.414Z,9.14
2019-04-10T07:44:57.776Z,9.55
2019-04-10T07:47:29.235Z,9.45
2019-04-10T07:50:02.127Z,9.93
2019-04-10T07:52:33.023Z,9.99
2019-04-10T07:55:04.501Z,9.37
2019-04-10T07:57:36.391Z,9.71
2019-04-10T08:00:09.071Z,10.22
2019-04-10T08:02:40.560Z,10.54
2019-04-10T08:05:12.288Z,9.78
2019-04-10T08:07:45.150Z,9.68
2019-04-10T08:10:20.184Z,9.99
2019-04-10T08:12:54.210Z,10.34
2019-04-10T08:15:25.190Z,10.24
2019-04-10T08:17:58.298Z,11.05
2019-04-10T08:20:30.666Z,9.04
2019-04-10T08:23:01.664Z,10.22
2019-04-10T08:25:33.759Z,10.65
2019-04-10T08:28:04.621Z,11.52
2019-04-10T08:30:36.230Z,10.39
2019-04-10T08:33:07.778Z,10.57
2019-04-10T08:35:39.862Z,11.58
2019-04-10T08:38:13.037Z,9.75
2019-04-10T08:40:44.492Z,10.17
2019-04-10T08:43:15.841Z,11.42
2019-04-10T08:45:51.042Z,10.00
2019-04-10T08:48:19.327Z,10.88
2019-04-10T08:50:50.738Z,11.06
2019-04-10T08:53:22.211Z,11.48
2019-04-10T08:55:54.662Z,12.16
2019-04-10T08:58:25.563Z,11.15
2019-04-10T09:00:56.617Z,10.37
2019-04-10T09:03:27.745Z,11.41
2019-04-10T09:05:58.831Z,10.74
2019-04-10T09:08:29.959Z,11.56
2019-04-10T09:11:01.041Z,11.75
2019-04-10T09:13:32.680Z,11.50
2019-04-10T09:16:04.547Z,11.10
2019-04-10T09:18:37.218Z,11.37
2019-04-10T09:21:08.126Z,11.27
2019-04-10T09:23:46.725Z,12.15
2019-04-10T09:26:13.366Z,12.33
2019-04-10T09:28:44.833Z,12.48
2019-04-10T09:31:15.993Z,11.97
2019-04-10T09:33:47.409Z,11.11
2019-04-10T09:36:19.765Z,12.19
2019-04-10T09:38:52.789Z,11.91
2019-04-10T09:41:25.890Z,13.40
2019-04-10T09:43:58.181Z,11.71
2019-04-10T09:46:29.170Z,12.66
2019-04-10T09:49:00.516Z,13.04
2019-04-10T09:51:34.157Z,12.74
2019-04-10T09:54:05.642Z,13.27
2019-04-10T09:56:36.698Z,12.56
2019-04-10T09:59:07.636Z,11.14
2019-04-10T10:01:38.466Z,11.40
2019-04-10T10:04:09.275Z,12.41
2019-04-10T10:06:40.118Z,11.34
2019-04-10T10:09:10.968Z,12.71
2019-04-10T10:11:42.738Z,12.01
2019-04-10T10:14:14.539Z,11.80
2019-04-10T10:16:46.313Z,10.34
2019-04-10T10:19:18.278Z,11.11
2019-04-10T10:21:50.463Z,9.95
2019-04-10T10:24:22.278Z,10.54
2019-04-10T10:26:53.600Z,12.27
2019-04-10T10:29:25.981Z,12.73
2019-04-10T10:31:57.015Z,12.08
2019-04-10T10:34:28.298Z,11.63
2019-04-10T10:37:00.100Z,13.22
2019-04-10T10:39:31.002Z,12.85
2019-04-10T10:42:03.235Z,11.69
2019-04-10T10:44:34.465Z,11.95
2019-04-10T10:47:06.293Z,10.36
2019-04-10T10:49:37.239Z,10.69
2019-04-10T10:52:09.064Z,10.65
2019-04-10T10:54:41.074Z,12.10
2019-04-10T10:57:13.158Z,14.17
2019-04-10T10:59:44.654Z,13.85
2019-04-10T11:02:15.506Z,12.47
2019-04-10T11:04:47.420Z,12.59
2019-04-10T11:07:18.697Z,12.86
2019-04-10T11:09:50.376Z,12.62
2019-04-10T11:12:22.012Z,11.94
2019-04-10T11:14:53.811Z,12.47
2019-04-10T11:17:25.504Z,13.12
2019-04-10T11:19:56.769Z,13.27
2019-04-10T11:22:27.671Z,13.08
2019-04-10T11:24:59.700Z,13.54
2019-04-10T11:27:31.770Z,12.49
2019-04-10T11:30:03.534Z,12.17
2019-04-10T11:32:36.944Z,11.86
2019-04-10T11:35:08.876Z,11.65
2019-04-10T11:37:44.577Z,12.21
2019-04-10T11:40:16.341Z,12.32
2019-04-10T11:42:46.792Z,12.92
2019-04-10T11:45:19.161Z,12.41
2019-04-10T11:47:51.257Z,11.61
2019-04-10T11:50:24.668Z,11.73
2019-04-10T11:52:56.744Z,11.85
2019-04-10T11:55:28.250Z,12.19
2019-04-10T11:58:00.168Z,12.80
2019-04-10T12:03:15.206Z,12.28
2019-04-10T12:05:48.032Z,13.79
2019-04-10T12:08:44.893Z,13.40
2019-04-10T12:11:10.901Z,14.90
2019-04-10T12:13:24.840Z,15.29
2019-04-10T12:15:56.693Z,14.92
2019-04-10T12:18:28.509Z,13.72
2019-04-10T12:20:59.759Z,11.77
2019-04-10T12:23:30.580Z,11.57
2019-04-10T12:26:01.757Z,12.29
2019-04-10T12:28:33.926Z,13.44
2019-04-10T12:31:06.007Z,12.19
2019-04-10T12:33:38.003Z,12.35
2019-04-10T12:36:10.704Z,11.80
2019-04-10T12:38:41.952Z,12.55
2019-04-10T12:41:12.792Z,12.71
2019-04-10T12:43:43.726Z,13.78
2019-04-10T12:46:14.989Z,13.82
2019-04-10T12:48:47.213Z,13.88
2019-04-10T12:51:19.315Z,13.64
2019-04-10T12:53:50.520Z,13.72
2019-04-10T12:56:22.009Z,13.44
2019-04-10T12:58:53.214Z,13.40
2019-04-10T13:01:24.761Z,13.89
2019-04-10T13:03:55.777Z,14.95
2019-04-10T13:06:26.564Z,14.75
2019-04-10T13:09:07.121Z,15.44
2019-04-10T13:11:30.806Z,14.58
2019-04-10T13:14:02.197Z,15.51
2019-04-10T13:16:34.123Z,14.68
2019-04-10T13:19:05.264Z,13.57
2019-04-10T13:21:36.920Z,13.67
2019-04-10T13:24:09.023Z,13.58
2019-04-10T13:26:40.051Z,13.80
2019-04-10T13:29:11.993Z,12.94
2019-04-10T13:31:42.868Z,12.13
2019-04-10T13:34:13.822Z,12.31
2019-04-10T13:36:46.041Z,13.31
2019-04-10T13:39:18.902Z,13.74
2019-04-10T13:41:50.452Z,13.78
2019-04-10T13:44:22.360Z,14.68
2019-04-10T13:46:53.887Z,14.78
2019-04-10T13:49:24.724Z,14.14
2019-04-10T13:51:56.203Z,14.05
2019-04-10T13:54:27.076Z,13.64
2019-04-10T13:56:57.953Z,13.29
2019-04-10T13:59:29.017Z,12.93
2019-04-10T14:02:00.552Z,14.21
2019-04-10T14:04:31.889Z,15.13
2019-04-10T14:07:04.358Z,13.98
2019-04-10T14:09:43.192Z,14.68
2019-04-10T14:12:08.036Z,14.10
2019-04-10T14:14:38.793Z,14.03
2019-04-10T14:17:09.805Z,14.24
2019-04-10T14:19:41.520Z,14.15
2019-04-10T14:22:13.472Z,14.66
2019-04-10T14:24:47.689Z,13.98
2019-04-10T14:27:22.847Z,13.79
2019-04-10T14:29:54.569Z,13.57
2019-04-10T14:32:31.301Z,13.27
2019-04-10T14:35:03.150Z,13.69
2019-04-10T14:37:34.090Z,15.00
2019-04-10T14:40:06.939Z,15.36
2019-04-10T14:42:38.500Z,14.50
2019-04-10T14:45:11.029Z,14.37
2019-04-10T14:47:43.375Z,14.73
2019-04-10T14:50:15.636Z,14.82
2019-04-10T14:52:47.534Z,14.33
2019-04-10T14:55:20.544Z,12.77
2019-04-10T14:57:53.010Z,12.77
2019-04-10T15:00:32.893Z,14.08
2019-04-10T15:03:04.404Z,13.60
2019-04-10T15:05:45.399Z,13.78
2019-04-10T15:08:09.249Z,14.01
2019-04-10T15:10:40.177Z,13.71
2019-04-10T15:13:16.282Z,14.17
2019-04-10T15:15:44.919Z,14.22
2019-04-10T15:18:15.807Z,14.27
2019-04-10T15:20:47.272Z,15.20
2019-04-10T15:23:20.274Z,14.11
2019-04-10T15:25:51.296Z,13.61
2019-04-10T15:28:23.215Z,13.75
2019-04-10T15:30:55.056Z,14.05
2019-04-10T15:33:26.694Z,13.68
2019-04-10T15:35:59.678Z,13.12
2019-04-10T15:38:30.681Z,13.45
2019-04-10T15:41:02.958Z,13.33
2019-04-10T15:43:35.092Z,12.92
2019-04-10T15:46:05.959Z,13.02
2019-04-10T15:48:37.687Z,13.41
2019-04-10T15:51:08.848Z,12.97
2019-04-10T15:53:41.045Z,13.05
2019-04-10T15:56:12.029Z,12.93
2019-04-10T15:58:43.809Z,13.02
2019-04-10T16:01:18.578Z,13.49
2019-04-10T16:03:50.588Z,14.21
2019-04-10T16:06:22.924Z,14.11
2019-04-10T16:08:54.230Z,13.27
2019-04-10T16:11:36.218Z,12.90
2019-04-10T16:14:18.746Z,12.55
2019-04-10T16:16:57.032Z,12.71
2019-04-10T16:19:47.088Z,13.32
2019-04-10T16:22:24.261Z,13.45
2019-04-10T16:24:58.016Z,12.49
2019-04-10T16:27:29.002Z,13.40
2019-04-10T16:30:03.021Z,13.58
2019-04-10T16:32:34.850Z,13.81
2019-04-10T16:35:07.180Z,13.22
2019-04-10T16:37:38.455Z,13.56
2019-04-10T16:40:10.459Z,12.94
2019-04-10T16:42:43.646Z,12.82
2019-04-10T16:45:17.528Z,12.90
2019-04-10T16:47:48.709Z,12.84
2019-04-10T16:50:19.702Z,13.64
2019-04-10T16:52:51.458Z,12.02
2019-04-10T16:55:22.788Z,12.10
2019-04-10T16:57:53.632Z,12.43
2019-04-10T17:00:24.585Z,11.95
2019-04-10T17:02:56.619Z,12.28
2019-04-10T17:05:28.248Z,12.87
2019-04-10T17:08:01.901Z,12.64
2019-04-10T17:10:32.777Z,12.19
2019-04-10T17:13:04.455Z,12.39
2019-04-10T17:15:36.347Z,12.47
2019-04-10T17:18:08.682Z,12.81
2019-04-10T17:20:40.415Z,12.01
2019-04-10T17:23:12.289Z,11.70
2019-04-10T17:25:44.353Z,11.43
2019-04-10T17:28:16.416Z,11.74
2019-04-10T17:30:47.661Z,11.90
2019-04-10T17:33:18.693Z,11.97
2019-04-10T17:35:49.639Z,11.67
2019-04-10T17:38:20.557Z,12.59
2019-04-10T17:40:55.562Z,12.11
2019-04-10T17:43:26.981Z,11.84
2019-04-10T17:45:58.615Z,11.98
2019-04-10T17:48:31.218Z,11.65
2019-04-10T17:51:03.897Z,11.89
2019-04-10T17:53:35.750Z,12.42
2019-04-10T17:56:06.694Z,11.50
2019-04-10T17:58:37.946Z,11.55
2019-04-10T18:01:12.612Z,11.41
2019-04-10T18:03:51.624Z,11.82
2019-04-10T18:06:17.343Z,11.85
2019-04-10T18:08:49.335Z,12.40
2019-04-10T18:11:20.467Z,11.95
2019-04-10T18:13:53.745Z,11.80
2019-04-10T18:16:25.632Z,11.88
2019-04-10T18:18:57.021Z,12.19
2019-04-10T18:21:28.781Z,11.73
2019-04-10T18:24:00.061Z,11.86
2019-04-10T18:26:31.932Z,11.41
2019-04-10T18:29:02.873Z,11.31
2019-04-10T18:31:34.762Z,11.10
2019-04-10T18:34:09.657Z,11.27
2019-04-10T18:36:38.658Z,11.29
2019-04-10T18:39:15.452Z,11.13
2019-04-10T18:41:47.089Z,11.70
2019-04-10T18:44:17.953Z,11.92
2019-04-10T18:46:48.943Z,11.78
2019-04-10T18:49:21.082Z,11.68
2019-04-10T18:51:52.102Z,11.83
2019-04-10T18:54:23.172Z,12.00
2019-04-10T18:56:54.123Z,12.39
2019-04-10T18:59:45.309Z,11.85
2019-04-10T19:02:34.900Z,12.01
2019-04-10T19:05:16.128Z,11.27
2019-04-10T19:07:48.227Z,11.42
2019-04-10T19:10:19.933Z,11.38
2019-04-10T19:12:51.135Z,11.69
2019-04-10T19:15:24.931Z,11.94
2019-04-10T19:17:55.851Z,11.03
2019-04-10T19:20:27.046Z,11.23
2019-04-10T19:22:59.134Z,11.50
2019-04-10T19:25:30.337Z,11.72
2019-04-10T19:28:02.406Z,11.08
2019-04-10T19:30:37.415Z,11.72
2019-04-10T19:33:08.640Z,11.86
2019-04-10T19:35:39.537Z,11.91
2019-04-10T19:38:11.686Z,11.57
2019-04-10T19:40:43.792Z,10.89
2019-04-10T19:43:16.009Z,10.79
2019-04-10T19:45:48.104Z,10.26
2019-04-10T19:48:21.875Z,11.10
2019-04-10T19:50:53.704Z,10.60
2019-04-10T19:53:25.117Z,10.81
2019-04-10T19:55:56.119Z,10.89
2019-04-10T19:58:30.206Z,10.63
2019-04-10T20:01:01.186Z,10.65
2019-04-10T20:03:32.740Z,10.83
2019-04-10T20:06:03.981Z,11.16
2019-04-10T20:08:35.635Z,12.02
2019-04-10T20:11:08.780Z,10.11
2019-04-10T20:13:40.896Z,11.08
2019-04-10T20:16:11.684Z,11.05
2019-04-10T20:18:43.238Z,10.80
2019-04-10T20:21:15.521Z,11.24
2019-04-10T20:23:46.563Z,11.41
2019-04-10T20:26:17.394Z,12.03
2019-04-10T20:28:48.435Z,11.32
2019-04-10T20:31:25.551Z,11.10
2019-04-10T20:33:56.902Z,11.65
2019-04-10T20:36:29.099Z,11.46
2019-04-10T20:39:01.047Z,11.19
2019-04-10T20:41:46.035Z,10.18
2019-04-10T20:44:07.282Z,10.87
2019-04-10T20:46:39.456Z,10.15
2019-04-10T20:49:10.455Z,10.13
2019-04-10T20:51:42.017Z,10.76
2019-04-10T20:54:13.278Z,11.40
2019-04-10T20:56:44.466Z,10.93
2019-04-10T20:59:15.635Z,11.04
2019-04-10T21:01:47.014Z,11.09
2019-04-10T21:04:18.093Z,10.15
2019-04-10T21:06:50.144Z,11.11
2019-04-10T21:09:21.642Z,10.74
2019-04-10T21:12:02.041Z,10.70
2019-04-10T21:14:25.476Z,11.04
2019-04-10T21:16:56.790Z,10.55
2019-04-10T21:19:31.566Z,10.44
2019-04-10T21:22:03.799Z,10.26
2019-04-10T21:24:35.750Z,9.71
2019-04-10T21:27:07.158Z,9.72
2019-04-10T21:29:57.052Z,9.54
2019-04-10T21:32:50.003Z,9.31
2019-04-10T21:35:27.104Z,9.80
2019-04-10T21:37:59.127Z,10.22
2019-04-10T21:40:30.649Z,9.68
2019-04-10T21:43:01.670Z,10.17
2019-04-10T21:45:33.341Z,11.04
2019-04-10T21:48:06.393Z,11.13
2019-04-10T21:50:37.798Z,9.82
2019-04-10T21:53:08.648Z,10.74
2019-04-10T21:55:39.846Z,11.35
2019-04-10T21:58:12.928Z,10.31
2019-04-10T22:01:01.401Z,9.75
2019-04-10T22:03:34.273Z,9.47
2019-04-10T22:06:15.159Z,8.82
2019-04-10T22:08:52.030Z,10.28
2019-04-10T22:11:23.598Z,9.64
2019-04-10T22:13:54.851Z,9.89
2019-04-10T22:16:26.257Z,9.10
2019-04-10T22:18:58.185Z,9.47
2019-04-10T22:21:29.178Z,9.82
2019-04-10T22:24:00.961Z,9.71
2019-04-10T22:26:32.148Z,9.85
2019-04-10T22:29:03.619Z,10.39
2019-04-10T22:31:36.020Z,10.81
2019-04-10T22:34:07.400Z,10.85
2019-04-10T22:36:39.427Z,10.59
2019-04-10T22:39:14.606Z,10.41
2019-04-10T22:41:46.225Z,10.20
2019-04-10T22:44:17.617Z,11.08
2019-04-10T22:46:48.626Z,10.60
2019-04-10T22:49:20.231Z,10.67
2019-04-10T22:51:51.804Z,11.06
2019-04-10T22:54:23.008Z,11.11
2019-04-10T22:56:54.459Z,10.26
2019-04-10T22:59:26.303Z,10.76
2019-04-10T23:02:03.390Z,10.28
2019-04-10T23:04:30.768Z,10.54
2019-04-10T23:07:01.854Z,10.54
2019-04-10T23:09:33.124Z,10.97
2019-04-10T23:12:07.842Z,10.48
2019-04-10T23:14:38.786Z,10.09
2019-04-10T23:17:10.715Z,9.91
2019-04-10T23:19:42.502Z,10.85
2019-04-10T23:22:14.923Z,9.51
2019-04-10T23:24:46.090Z,9.97
2019-04-10T23:27:17.716Z,9.36
2019-04-10T23:29:48.878Z,10.53
2019-04-10T23:32:20.117Z,10.04
2019-04-10T23:34:51.025Z,9.88
2019-04-10T23:37:22.571Z,9.43
2019-04-10T23:39:54.521Z,10.85
2019-04-10T23:42:25.872Z,9.99
2019-04-10T23:44:57.501Z,9.94
2019-04-10T23:47:28.606Z,9.00
2019-04-10T23:49:59.775Z,9.19
2019-04-10T23:52:31.840Z,9.89
2019-04-10T23:55:03.980Z,9.60
2019-04-10T23:57:35.684Z,9.93
